createdAt,value
2019-01-29T00:02:21.633Z,99.90
2019-01-29T00:04:51.450Z,99.90
2019-01-29T00:07:21.367Z,99.90
2019-01-29T00:09:51.267Z,99.90
2019-01-29T00:12:21.114Z,99.90
2019-01-29T00:14:51.286Z,99.90
2019-01-29T00:17:21.147Z,99.90
2019-01-29T00:19:51.036Z,99.90
2019-01-29T00:22:20.966Z,99.90
2019-01-29T00:24:50.804Z,99.90
2019-01-29T00:27:20.642Z,99.90
2019-01-29T00:29:50.395Z,99.90
2019-01-29T00:32:20.278Z,99.90
2019-01-29T00:34:50.137Z,99.90
2019-01-29T00:37:20.131Z,99.90
2019-01-29T00:39:50.043Z,99.90
2019-01-29T00:42:19.807Z,99.90
2019-01-29T00:44:49.735Z,99.90
2019-01-29T00:47:19.599Z,99.90
2019-01-29T00:49:49.445Z,99.90
2019-01-29T00:52:19.368Z,99.90
2019-01-29T00:54:49.438Z,99.90
2019-01-29T00:57:19.284Z,99.90
2019-01-29T00:59:49.212Z,99.90
2019-01-29T01:02:19.127Z,99.90
2019-01-29T01:04:49.077Z,99.90
2019-01-29T01:07:19.019Z,99.90
2019-01-29T01:09:56.852Z,99.90
2019-01-29T01:12:20.652Z,99.90
2019-01-29T01:14:50.516Z,99.90
2019-01-29T01:17:20.367Z,99.90
2019-01-29T01:19:50.523Z,99.90
2019-01-29T01:22:20.440Z,99.90
2019-01-29T01:24:50.316Z,99.90
2019-01-29T01:27:20.228Z,99.90
2019-01-29T01:29:50.088Z,99.90
2019-01-29T01:32:20.090Z,99.90
2019-01-29T01:34:49.919Z,99.90
2019-01-29T01:37:19.899Z,99.90
2019-01-29T01:39:49.943Z,99.90
2019-01-29T01:42:19.884Z,99.90
2019-01-29T01:44:49.751Z,99.90
2019-01-29T01:47:19.642Z,99.90
2019-01-29T01:49:49.587Z,99.90
2019-01-29T01:52:19.534Z,99.90
2019-01-29T01:54:49.327Z,99.90
2019-01-29T01:57:19.309Z,99.90
2019-01-29T01:59:49.231Z,99.90
2019-01-29T02:02:19.108Z,99.90
2019-01-29T02:04:49.920Z,99.90
2019-01-29T02:07:19.839Z,99.90
2019-01-29T02:09:49.789Z,99.90
2019-01-29T02:12:19.723Z,99.90
2019-01-29T02:14:49.559Z,99.90
2019-01-29T02:17:28.540Z,99.90
2019-01-29T02:19:58.449Z,99.90
2019-01-29T02:22:28.308Z,99.90
2019-01-29T02:24:58.134Z,99.90
2019-01-29T02:27:28.082Z,99.90
2019-01-29T02:29:57.896Z,99.90
2019-01-29T02:32:28.048Z,99.90
2019-01-29T02:34:58.157Z,99.90
2019-01-29T02:37:28.053Z,99.90
2019-01-29T02:39:58.190Z,99.90
2019-01-29T02:42:28.119Z,99.90
2019-01-29T02:44:58.054Z,99.90
2019-01-29T02:47:27.916Z,99.90
2019-01-29T02:49:58.740Z,99.90
2019-01-29T02:52:28.654Z,99.90
2019-01-29T02:54:58.500Z,99.90
2019-01-29T02:57:29.392Z,99.90
2019-01-29T02:59:59.144Z,99.90
2019-01-29T03:02:29.065Z,99.90
2019-01-29T03:04:58.925Z,99.90
2019-01-29T03:07:28.841Z,99.90
2019-01-29T03:09:58.605Z,99.90
2019-01-29T03:12:28.524Z,99.90
2019-01-29T03:14:58.441Z,99.90
2019-01-29T03:17:28.350Z,99.90
2019-01-29T03:19:58.092Z,99.90
2019-01-29T03:22:27.920Z,99.90
2019-01-29T03:24:57.942Z,99.90
2019-01-29T03:27:27.810Z,99.90
2019-01-29T03:29:57.706Z,99.90
2019-01-29T03:32:27.629Z,99.90
2019-01-29T03:34:57.597Z,99.90
2019-01-29T03:37:27.509Z,99.90
2019-01-29T03:39:57.618Z,99.90
2019-01-29T03:42:27.610Z,99.90
2019-01-29T03:44:57.545Z,99.90
2019-01-29T03:47:27.464Z,99.90
2019-01-29T03:49:57.406Z,99.90
2019-01-29T03:52:27.598Z,99.90
2019-01-29T03:54:57.526Z,99.90
2019-01-29T03:57:27.541Z,99.90
2019-01-29T03:59:57.518Z,99.90
2019-01-29T04:02:27.434Z,99.90
2019-01-29T04:04:57.352Z,99.90
2019-01-29T04:07:27.240Z,99.90
2019-01-29T04:09:57.206Z,99.90
2019-01-29T04:12:27.103Z,99.90
2019-01-29T04:14:57.104Z,99.90
2019-01-29T04:17:27.230Z,99.90
2019-01-29T04:19:57.388Z,99.90
2019-01-29T04:22:27.355Z,99.90
2019-01-29T04:24:57.263Z,99.90
2019-01-29T04:27:27.185Z,99.90
2019-01-29T04:29:56.946Z,99.90
2019-01-29T04:32:26.719Z,99.90
2019-01-29T04:34:56.624Z,99.90
2019-01-29T04:37:26.539Z,99.90
2019-01-29T04:39:56.317Z,99.90
2019-01-29T04:42:26.156Z,99.90
2019-01-29T04:44:55.920Z,99.90
2019-01-29T04:47:25.717Z,99.90
2019-01-29T04:49:55.644Z,99.90
2019-01-29T04:52:25.496Z,99.90
2019-01-29T04:54:55.344Z,99.90
2019-01-29T04:57:25.431Z,99.90
2019-01-29T04:59:55.275Z,99.90
2019-01-29T05:02:25.194Z,99.90
2019-01-29T05:04:55.110Z,99.90
2019-01-29T05:07:25.021Z,99.90
2019-01-29T05:09:54.865Z,99.90
2019-01-29T05:12:24.638Z,99.90
2019-01-29T05:14:54.478Z,99.90
2019-01-29T05:17:24.337Z,99.90
2019-01-29T05:19:54.181Z,99.90
2019-01-29T05:22:24.109Z,99.90
2019-01-29T05:24:54.304Z,99.90
2019-01-29T05:27:24.489Z,99.90
2019-01-29T05:29:54.252Z,99.90
2019-01-29T05:32:24.317Z,99.90
2019-01-29T05:34:54.145Z,99.90
2019-01-29T05:37:24.331Z,99.90
2019-01-29T05:39:54.098Z,99.90
2019-01-29T05:42:24.013Z,99.90
2019-01-29T05:44:53.849Z,99.90
2019-01-29T05:47:23.774Z,99.90
2019-01-29T05:49:53.676Z,99.90
2019-01-29T05:52:23.567Z,99.90
2019-01-29T05:54:53.561Z,99.90
2019-01-29T05:57:23.506Z,99.90
2019-01-29T05:59:53.505Z,99.90
2019-01-29T06:02:23.453Z,99.90
2019-01-29T06:04:53.308Z,99.90
2019-01-29T06:07:24.202Z,99.90
2019-01-29T06:09:54.216Z,99.90
2019-01-29T06:12:24.422Z,99.90
2019-01-29T06:14:54.450Z,99.90
2019-01-29T06:17:27.519Z,99.90
2019-01-29T06:19:56.301Z,99.90
2019-01-29T06:22:26.288Z,99.90
2019-01-29T06:24:56.215Z,99.90
2019-01-29T06:27:26.169Z,99.90
2019-01-29T06:29:56.019Z,99.90
2019-01-29T06:32:26.219Z,99.90
2019-01-29T06:34:55.998Z,99.90
2019-01-29T06:37:25.917Z,99.90
2019-01-29T06:39:55.664Z,99.90
2019-01-29T06:42:25.697Z,99.90
2019-01-29T06:44:57.038Z,99.90
2019-01-29T06:47:26.802Z,99.90
2019-01-29T06:49:56.730Z,99.90
2019-01-29T06:52:26.817Z,99.90
2019-01-29T06:54:56.941Z,99.90
2019-01-29T06:57:26.788Z,99.90
2019-01-29T06:59:56.596Z,99.90
2019-01-29T07:02:26.497Z,99.90
2019-01-29T07:04:56.264Z,99.90
2019-01-29T07:07:26.065Z,99.90
2019-01-29T07:09:55.904Z,99.90
2019-01-29T07:12:25.891Z,99.90
2019-01-29T07:14:55.725Z,99.90
2019-01-29T07:17:33.762Z,99.90
2019-01-29T07:20:06.509Z,99.90
2019-01-29T07:22:36.407Z,99.90
2019-01-29T07:25:07.865Z,99.90
2019-01-29T07:27:37.774Z,99.90
2019-01-29T07:30:09.532Z,99.90
2019-01-29T07:32:39.262Z,99.90
2019-01-29T07:35:09.268Z,99.90
2019-01-29T07:37:39.458Z,99.90
2019-01-29T07:40:09.648Z,99.90
2019-01-29T07:42:39.517Z,99.90
2019-01-29T07:45:10.564Z,99.90
2019-01-29T07:47:40.514Z,99.90
2019-01-29T07:50:11.237Z,99.90
2019-01-29T07:52:41.123Z,99.90
2019-01-29T07:55:11.243Z,99.90
2019-01-29T07:57:41.134Z,99.90
2019-01-29T08:00:11.581Z,99.90
2019-01-29T08:02:41.471Z,99.90
2019-01-29T08:05:11.404Z,99.90
2019-01-29T08:07:41.312Z,99.90
2019-01-29T08:10:12.133Z,99.90
2019-01-29T08:12:41.953Z,99.90
2019-01-29T08:15:12.116Z,99.90
2019-01-29T08:17:42.009Z,99.90
2019-01-29T08:20:11.942Z,99.90
2019-01-29T08:22:42.789Z,99.90
2019-01-29T08:25:12.980Z,99.90
2019-01-29T08:27:42.872Z,99.90
2019-01-29T08:30:13.069Z,99.90
2019-01-29T08:32:43.193Z,99.90
2019-01-29T08:35:13.629Z,99.90
2019-01-29T08:37:43.604Z,99.90
2019-01-29T08:40:13.508Z,99.90
2019-01-29T08:42:43.406Z,99.90
2019-01-29T08:45:13.433Z,99.90
2019-01-29T08:47:43.308Z,99.90
2019-01-29T08:50:16.285Z,99.90
2019-01-29T08:52:46.267Z,99.90
2019-01-29T08:55:16.163Z,99.90
2019-01-29T08:57:45.992Z,99.90
2019-01-29T09:00:17.875Z,99.90
2019-01-29T09:02:48.106Z,99.90
2019-01-29T09:05:19.701Z,99.90
2019-01-29T09:07:50.689Z,99.90
2019-01-29T09:10:21.100Z,99.90
2019-01-29T09:12:51.555Z,99.90
2019-01-29T09:15:21.565Z,99.90
2019-01-29T09:17:51.457Z,99.90
2019-01-29T09:20:21.490Z,99.90
2019-01-29T09:25:22.826Z,99.90
2019-01-29T09:27:52.834Z,99.90
2019-01-29T09:30:22.969Z,99.90
2019-01-29T09:32:52.851Z,99.90
2019-01-29T09:35:22.677Z,99.90
2019-01-29T09:37:52.817Z,99.90
2019-01-29T09:40:22.838Z,99.90
2019-01-29T09:42:52.839Z,99.90
2019-01-29T09:45:23.116Z,99.90
2019-01-29T09:47:53.112Z,99.90
2019-01-29T09:50:23.155Z,99.90
2019-01-29T09:52:53.372Z,99.90
2019-01-29T09:55:28.998Z,99.90
2019-01-29T09:57:54.805Z,99.90
2019-01-29T10:00:27.315Z,99.90
2019-01-29T10:02:57.223Z,99.90
2019-01-29T10:05:27.129Z,99.90
2019-01-29T10:07:57.011Z,99.90
2019-01-29T10:10:26.909Z,99.90
2019-01-29T10:12:57.014Z,99.20
2019-01-29T10:15:28.493Z,97.20
2019-01-29T10:17:58.408Z,96.20
2019-01-29T10:20:29.459Z,97.30
2019-01-29T10:23:00.261Z,92.60
2019-01-29T10:25:37.454Z,85.30
2019-01-29T10:28:01.727Z,74.50
2019-01-29T10:30:31.945Z,77.90
2019-01-29T10:33:01.947Z,87.60
2019-01-29T10:35:32.013Z,89.70
2019-01-29T10:38:01.920Z,88.90
2019-01-29T10:40:32.197Z,91.00
2019-01-29T10:43:02.133Z,93.90
2019-01-29T10:45:32.610Z,91.70
2019-01-29T10:48:02.690Z,87.80
2019-01-29T10:50:32.830Z,94.60
2019-01-29T10:53:02.764Z,99.90
2019-01-29T10:55:32.679Z,99.90
2019-01-29T10:58:02.505Z,99.90
2019-01-29T11:00:35.342Z,99.90
2019-01-29T11:03:06.451Z,99.90
2019-01-29T11:05:36.465Z,99.90
2019-01-29T11:08:06.620Z,99.90
2019-01-29T11:10:36.604Z,99.90
2019-01-29T11:13:07.420Z,99.90
2019-01-29T11:15:39.814Z,99.90
2019-01-29T11:18:12.610Z,99.90
2019-01-29T11:20:42.591Z,99.90
2019-01-29T11:23:12.525Z,99.90
2019-01-29T11:25:42.747Z,99.90
2019-01-29T11:28:12.704Z,99.90
2019-01-29T11:30:42.857Z,99.90
2019-01-29T11:33:12.776Z,99.90
2019-01-29T11:35:42.610Z,99.90
2019-01-29T11:38:12.650Z,99.90
2019-01-29T11:40:42.573Z,99.90
2019-01-29T11:43:12.505Z,99.90
2019-01-29T11:45:45.181Z,99.90
2019-01-29T11:48:15.049Z,99.90
2019-01-29T11:50:45.044Z,99.90
2019-01-29T11:53:14.951Z,99.90
2019-01-29T11:55:44.802Z,99.90
2019-01-29T11:58:14.565Z,99.90
2019-01-29T12:00:51.730Z,99.90
2019-01-29T12:03:21.709Z,99.90
2019-01-29T12:05:52.581Z,99.90
2019-01-29T12:08:22.604Z,99.90
2019-01-29T12:10:53.729Z,99.90
2019-01-29T12:13:23.896Z,99.90
2019-01-29T12:15:53.999Z,99.90
2019-01-29T12:18:25.052Z,99.50
2019-01-29T12:20:55.017Z,88.10
2019-01-29T12:23:25.028Z,74.70
2019-01-29T12:25:56.064Z,84.10
2019-01-29T12:28:25.972Z,91.50
2019-01-29T12:30:57.162Z,96.00
2019-01-29T12:33:27.140Z,99.90
2019-01-29T12:35:57.101Z,99.90
2019-01-29T12:38:27.008Z,99.90
2019-01-29T12:40:56.896Z,99.90
2019-01-29T12:43:26.789Z,99.90
2019-01-29T12:45:57.006Z,99.90
2019-01-29T12:48:26.959Z,99.90
2019-01-29T12:50:58.621Z,99.90
2019-01-29T12:53:39.667Z,99.90
2019-01-29T12:56:09.579Z,99.90
2019-01-29T12:58:39.536Z,99.90
2019-01-29T13:01:09.526Z,99.90
2019-01-29T13:03:39.436Z,99.90
2019-01-29T13:06:09.425Z,99.90
2019-01-29T13:08:39.397Z,99.90
2019-01-29T13:11:10.352Z,99.90
2019-01-29T13:13:40.257Z,99.90
2019-01-29T13:16:10.271Z,99.90
2019-01-29T13:18:40.173Z,99.90
2019-01-29T13:21:10.024Z,99.90
2019-01-29T13:23:39.998Z,99.90
2019-01-29T13:26:10.189Z,99.90
2019-01-29T13:28:40.472Z,99.90
2019-01-29T13:31:10.743Z,99.90
2019-01-29T13:33:40.600Z,99.90
2019-01-29T13:36:10.643Z,99.90
2019-01-29T13:38:40.929Z,99.90
2019-01-29T13:41:10.757Z,99.90
2019-01-29T13:43:42.668Z,99.90
2019-01-29T13:46:12.628Z,99.90
2019-01-29T13:48:42.531Z,99.90
2019-01-29T13:51:12.442Z,99.90
2019-01-29T13:53:42.324Z,99.90
2019-01-29T13:56:12.154Z,99.90
2019-01-29T13:58:42.153Z,99.90
2019-01-29T14:01:12.167Z,99.90
2019-01-29T14:03:43.140Z,99.90
2019-01-29T14:06:13.127Z,99.90
2019-01-29T14:08:48.765Z,99.90
2019-01-29T14:11:38.805Z,99.90
2019-01-29T14:14:11.056Z,99.90
2019-01-29T14:16:40.986Z,99.90
2019-01-29T14:22:49.503Z,99.90
2019-01-29T14:25:32.954Z,99.90
2019-01-29T14:28:02.862Z,99.90
2019-01-29T14:30:32.810Z,99.90
2019-01-29T14:33:02.672Z,99.90
2019-01-29T14:35:32.580Z,99.90
2019-01-29T14:38:49.891Z,99.90
2019-01-29T14:41:21.215Z,99.90
2019-01-29T14:43:53.454Z,99.90
2019-01-29T14:46:23.457Z,99.10
2019-01-29T14:48:53.441Z,90.70
2019-01-29T14:51:23.357Z,90.80
2019-01-29T14:53:54.346Z,92.80
2019-01-29T14:56:24.245Z,99.90
2019-01-29T14:58:54.509Z,99.90
2019-01-29T15:01:25.516Z,99.90
2019-01-29T15:03:55.406Z,99.90
2019-01-29T15:06:32.264Z,99.90
2019-01-29T15:08:58.033Z,99.90
2019-01-29T15:11:27.935Z,99.90
2019-01-29T15:13:57.830Z,99.90
2019-01-29T15:16:49.831Z,99.90
2019-01-29T15:19:21.981Z,99.90
2019-01-29T15:21:51.904Z,99.90
2019-01-29T15:24:21.723Z,99.90
2019-01-29T15:26:51.548Z,99.90
2019-01-29T15:29:22.521Z,99.90
2019-01-29T15:31:52.430Z,99.90
2019-01-29T15:34:22.266Z,99.90
2019-01-29T15:36:52.189Z,99.90
2019-01-29T15:39:22.014Z,99.90
2019-01-29T15:41:52.168Z,99.90
2019-01-29T15:44:22.057Z,99.90
2019-01-29T15:46:52.044Z,99.90
2019-01-29T15:49:22.220Z,99.90
2019-01-29T15:51:52.112Z,99.90
2019-01-29T15:54:23.069Z,99.90
2019-01-29T15:56:53.079Z,99.90
2019-01-29T15:59:23.124Z,99.90
2019-01-29T16:01:52.978Z,99.90
2019-01-29T16:04:22.940Z,99.90
2019-01-29T16:06:54.021Z,99.90
2019-01-29T16:09:24.083Z,99.90
2019-01-29T16:11:56.006Z,99.90
2019-01-29T16:14:25.900Z,99.90
2019-01-29T16:16:56.020Z,99.90
2019-01-29T16:19:26.024Z,99.90
2019-01-29T16:21:55.796Z,99.90
2019-01-29T16:24:25.636Z,99.90
2019-01-29T16:26:55.725Z,99.90
2019-01-29T16:29:25.725Z,99.90
2019-01-29T16:31:55.599Z,99.90
2019-01-29T16:34:25.445Z,99.90
2019-01-29T16:36:55.214Z,99.90
2019-01-29T16:39:25.141Z,99.90
2019-01-29T16:41:55.089Z,99.90
2019-01-29T16:44:25.004Z,99.90
2019-01-29T16:46:57.024Z,99.90
2019-01-29T16:49:26.853Z,99.90
2019-01-29T16:51:57.867Z,99.90
2019-01-29T16:54:27.759Z,99.90
2019-01-29T16:56:57.854Z,99.90
2019-01-29T16:59:27.837Z,99.90
2019-01-29T17:01:57.788Z,99.90
2019-01-29T17:04:28.598Z,99.90
2019-01-29T17:06:58.562Z,99.90
2019-01-29T17:09:28.340Z,99.90
2019-01-29T17:11:58.424Z,99.90
2019-01-29T17:14:28.564Z,99.90
2019-01-29T17:16:58.575Z,99.90
2019-01-29T17:19:28.718Z,99.90
2019-01-29T17:21:58.755Z,99.90
2019-01-29T17:24:28.830Z,99.90
2019-01-29T17:26:58.746Z,99.90
2019-01-29T17:29:28.746Z,99.90
2019-01-29T17:31:58.800Z,99.90
2019-01-29T17:34:28.942Z,99.90
2019-01-29T17:36:59.042Z,99.90
2019-01-29T17:39:29.119Z,99.90
2019-01-29T17:41:59.483Z,99.90
2019-01-29T17:44:29.726Z,99.90
2019-01-29T17:46:59.827Z,99.90
2019-01-29T17:49:29.789Z,99.90
2019-01-29T17:51:59.816Z,99.90
2019-01-29T17:54:29.728Z,99.90
2019-01-29T17:57:00.530Z,99.90
2019-01-29T17:59:30.817Z,99.90
2019-01-29T18:02:00.937Z,99.90
2019-01-29T18:04:31.173Z,99.90
2019-01-29T18:07:01.117Z,99.90
2019-01-29T18:09:31.196Z,99.90
2019-01-29T18:12:01.291Z,99.90
2019-01-29T18:14:32.469Z,99.90
2019-01-29T18:17:02.524Z,99.90
2019-01-29T18:19:32.604Z,99.90
2019-01-29T18:22:03.349Z,99.90
2019-01-29T18:24:33.697Z,99.90
2019-01-29T18:27:04.020Z,99.90
2019-01-29T18:29:33.989Z,99.90
2019-01-29T18:32:04.276Z,99.90
2019-01-29T18:34:37.275Z,99.90
2019-01-29T18:37:07.452Z,99.90
2019-01-29T18:39:37.440Z,99.90
2019-01-29T18:42:08.901Z,99.90
2019-01-29T18:44:39.124Z,99.90
2019-01-29T18:47:09.230Z,99.90
2019-01-29T18:49:39.645Z,99.90
2019-01-29T18:52:10.201Z,99.90
2019-01-29T18:54:40.455Z,99.90
2019-01-29T18:57:10.874Z,99.90
2019-01-29T18:59:41.204Z,99.90
2019-01-29T19:02:11.700Z,99.90
2019-01-29T19:04:42.186Z,99.90
2019-01-29T19:07:12.579Z,99.90
2019-01-29T19:09:43.408Z,99.90
2019-01-29T19:12:16.298Z,99.90
2019-01-29T19:14:46.474Z,99.90
2019-01-29T19:17:16.930Z,99.90
2019-01-29T19:19:47.349Z,99.90
2019-01-29T19:22:17.720Z,99.90
2019-01-29T19:24:48.161Z,99.90
2019-01-29T19:27:18.513Z,99.90
2019-01-29T19:29:49.532Z,99.90
2019-01-29T19:32:21.074Z,99.90
2019-01-29T19:34:51.688Z,99.90
2019-01-29T19:37:22.430Z,99.90
2019-01-29T19:39:52.878Z,99.90
2019-01-29T19:42:27.623Z,99.90
2019-01-29T19:44:55.758Z,99.90
2019-01-29T19:47:26.289Z,99.90
2019-01-29T19:49:57.873Z,99.90
2019-01-29T19:52:28.302Z,99.90
2019-01-29T19:54:58.616Z,99.90
2019-01-29T19:57:29.170Z,99.90
2019-01-29T20:00:00.660Z,99.90
2019-01-29T20:02:31.155Z,99.90
2019-01-29T20:05:01.636Z,99.90
2019-01-29T20:07:31.985Z,99.90
2019-01-29T20:10:02.566Z,99.90
2019-01-29T20:12:33.201Z,99.90
2019-01-29T20:15:06.009Z,99.90
2019-01-29T20:17:36.562Z,99.90
2019-01-29T20:20:08.420Z,99.90
2019-01-29T20:22:38.932Z,99.90
2019-01-29T20:25:09.440Z,99.90
2019-01-29T20:27:39.874Z,99.90
2019-01-29T20:30:15.137Z,99.90
2019-01-29T20:32:53.244Z,99.90
2019-01-29T20:35:18.001Z,99.90
2019-01-29T20:37:48.253Z,99.90
2019-01-29T20:40:18.815Z,99.90
2019-01-29T20:42:48.991Z,99.90
2019-01-29T20:45:19.203Z,99.90
2019-01-29T20:47:52.671Z,99.90
2019-01-29T20:50:27.346Z,99.90
2019-01-29T20:52:57.445Z,99.90
2019-01-29T20:55:27.514Z,99.90
2019-01-29T20:58:01.967Z,99.90
2019-01-29T21:00:34.020Z,99.90
2019-01-29T21:03:04.520Z,99.90
2019-01-29T21:05:34.675Z,99.90
2019-01-29T21:08:04.842Z,99.90
2019-01-29T21:10:34.924Z,99.90
2019-01-29T21:13:05.099Z,99.90
2019-01-29T21:15:38.555Z,99.90
2019-01-29T21:18:06.782Z,99.90
2019-01-29T21:20:36.683Z,99.90
2019-01-29T21:23:06.567Z,99.90
2019-01-29T21:25:36.404Z,99.90
2019-01-29T21:28:06.297Z,99.90
2019-01-29T21:30:38.903Z,99.90
2019-01-29T21:33:08.845Z,99.90
2019-01-29T21:35:38.772Z,99.90
2019-01-29T21:38:08.719Z,99.90
2019-01-29T21:40:38.592Z,99.90
2019-01-29T21:43:08.517Z,99.90
2019-01-29T21:45:39.493Z,99.90
2019-01-29T21:48:09.841Z,99.90
2019-01-29T21:50:40.036Z,99.90
2019-01-29T21:53:09.949Z,99.90
2019-01-29T21:55:39.805Z,99.90
2019-01-29T21:58:09.708Z,99.90
2019-01-29T22:00:44.488Z,99.90
2019-01-29T22:03:15.218Z,99.90
2019-01-29T22:05:45.147Z,99.90
2019-01-29T22:08:14.973Z,99.90
2019-01-29T22:10:44.837Z,99.90
2019-01-29T22:13:14.753Z,99.90
2019-01-29T22:15:44.673Z,99.90
2019-01-29T22:18:14.994Z,99.90
2019-01-29T22:20:44.833Z,99.90
2019-01-29T22:23:14.741Z,99.90
2019-01-29T22:25:44.643Z,99.90
2019-01-29T22:28:14.484Z,99.90
2019-01-29T22:30:44.394Z,99.90
2019-01-29T22:33:14.304Z,99.90
2019-01-29T22:35:44.201Z,99.90
2019-01-29T22:38:14.043Z,99.90
2019-01-29T22:40:43.793Z,99.90
2019-01-29T22:43:13.716Z,99.90
2019-01-29T22:45:44.127Z,99.90
2019-01-29T22:48:13.897Z,99.90
2019-01-29T22:50:44.120Z,99.90
2019-01-29T22:53:13.946Z,99.90
2019-01-29T22:55:43.850Z,99.90
2019-01-29T22:58:13.758Z,99.90
2019-01-29T23:01:33.605Z,99.90
2019-01-29T23:04:32.717Z,99.90
2019-01-29T23:07:23.499Z,99.90
2019-01-29T23:09:53.672Z,99.90
2019-01-29T23:12:23.589Z,99.90
2019-01-29T23:14:53.501Z,99.90
2019-01-29T23:17:23.681Z,99.90
2019-01-29T23:19:53.583Z,99.90
2019-01-29T23:22:23.445Z,99.90
2019-01-29T23:24:53.584Z,99.90
2019-01-29T23:27:23.361Z,99.90
2019-01-29T23:29:53.277Z,99.90
2019-01-29T23:32:23.445Z,99.90
2019-01-29T23:34:53.355Z,99.90
2019-01-29T23:37:23.169Z,99.90
2019-01-29T23:39:53.089Z,99.90
2019-01-29T23:42:23.045Z,99.90
2019-01-29T23:44:53.058Z,99.90
2019-01-29T23:47:22.973Z,99.90
2019-01-29T23:49:52.813Z,99.90
2019-01-29T23:52:22.729Z,99.90
2019-01-29T23:54:52.495Z,99.90
2019-01-29T23:57:22.332Z,99.90
2019-01-29T23:59:53.852Z,99.90
